Aeroporto :
LOGIN :

Iscrizione | Disclaimer

   EN    FR    IT 

 










Sommario :    VFR   VFR Marginale   IFR   IFR Intensivo   IFR Molto Intensivo
Visibilità : 
Base nubi : 
>= 8 km
>= 3000ft
5 / 8 km
1000 / 3000 ft
1500m / 5 km
500 / 1000 ft
800 / 1500m
200 / 500 ft
< 800m
< 200 ft
Simboli :   Temporali  Nebbia  Neve Forte  Precipitazioni Forti  Vento > 20 kt
SIGMETs :   Varie  Temporali  Ghiacco  Turbolenza  Onda orograficha  Ceneri Vulcaniche







- Altitudine del aeroporto : 157 ft
- Codice IATA : SXF


EDDB - Berlin Schönefeld

ULTIMO METAR :
  • 181320Z 13008G18KT 070V160 CAVOK 28/09 Q1016 NOSIG

METARs OBSOLETI :
  • 181250Z 12012KT 090V150 CAVOK 29/10 Q1016 NOSIG
  • 181220Z 13012KT CAVOK 28/10 Q1016 NOSIG
  • 181150Z 12009G20KT 070V230 CAVOK 29/11 Q1017 NOSIG
  • 181120Z 14012KT 090V170 CAVOK 28/11 Q1017 NOSIG
  • 181050Z 11013G23KT 070V150 CAVOK 27/10 Q1017 NOSIG

TAF TAF EDDB
Valido dal 18 a 12 ore il 19 a 12 ore UTC


181100Z 1812/1912 15011KT CAVOK
PROB30
TEMPO 1812/1814 15015G25KT
BECMG 1817/1819 13006KT
Nessun NOTAM noto per questo aeroporto.



MetMap, La meteo Aeronautica in un colpo d'occhio ! - Copyright ORBIFLY Dicembre 2007 - Disclaimer

ORBIFLY MET'MAP TEAM :

Programmazione e sviluppo : Alexandra Zaïnal
Concezione e sviluppo : Baudouin d'Aumeries
Co-Programmazione e sviluppo : Marc-Olivier Méhu
Supporto tecnico e logistico : Manuel Goepfert
Aiuto per la traduzione : Arnaldo La Scala

Contatto : metmap@orbifly.com




FONTI E CREDITI :

   NOAA